首页
METAR-TAF:

METAR-TAF

机场 :

茨城机场

百里飛行場, 日本

纬度: 36-11N, 经度: 140-25E, 海拔: 32米

当前天气观测

该预报发布于24分钟前的14:00 UTC
风速3节,风向
温度 22°C
湿度 100%
气压 1014 hPa
能見度: 8000
少量云层高于400英尺
多云层高于600英尺

METAR: RJAH 241400Z 01003KT 8000 FEW004 BKN006 22/22 Q1014

时间: 23:24 (14:24 UTC)

预报

该预报发布于3小时和19分钟前的11:05 UTC
预报有效从24日的 12点(UTC)到 25日的 18点(UTC)
风速6节,风向北转东北
能見度: 8000
少量云层高于1000英尺
多云层高于2000英尺
短暂存在
从 24日的 12点(UTC)到 24日的 18点(UTC)
少量云层高于500英尺
多云层高于800英尺
短暂存在
从 24日的 23点(UTC)到 25日的 06点(UTC)
能見度: 3000
少量云层高于500英尺
多云层高于800英尺
阵雨, 轻雾
成为
从 25日的 06点(UTC)到 25日的 09点(UTC)
能見度: 2500
少量云层高于300英尺
多云层高于500英尺
阵雨, 轻雾

TAF: RJAH 241105Z 2412/2518 03006KT 8000 FEW010 BKN020 TEMPO 2412/2418 FEW005 BKN008 TEMPO 2423/2506 3000 SHRA BR FEW005 BKN008 BECMG 2506/2509 2500 SHRA BR FEW003 BKN005

超过4000个机场的气象观测和天气预报(METAR&TAF报告)。

可查询的气象台以黄色和红色小点在地图上表示。

将鼠标移到小点上方,可查看气象台名称。

然后点击查看天气观测和预报。

如需切换地图:点击带黑十字的绿色按钮放大地图;点击带横线的绿色按钮缩小地图;或者点击绿色箭头查看邻近地区的地图。


METAR-TAF: